createdAt,value
2023-02-08T00:01:39.619Z,42.92
2023-02-08T00:04:25.660Z,32.53
2023-02-08T00:07:11.312Z,26.27
2023-02-08T00:09:57.188Z,24.40
2023-02-08T00:12:42.859Z,25.58
2023-02-08T00:15:29.045Z,26.85
2023-02-08T00:18:15.014Z,27.80
2023-02-08T00:21:00.910Z,24.35
2023-02-08T00:23:46.809Z,26.95
2023-02-08T00:26:32.652Z,24.85
2023-02-08T00:29:19.105Z,24.55
2023-02-08T00:32:05.221Z,28.20
2023-02-08T00:34:51.361Z,22.70
2023-02-08T00:37:37.204Z,27.38
2023-02-08T00:40:23.104Z,24.55
2023-02-08T00:43:09.555Z,24.88
2023-02-08T00:45:56.756Z,24.80
2023-02-08T00:48:43.706Z,30.35
2023-02-08T00:51:29.666Z,21.98
2023-02-08T00:54:17.226Z,28.40
2023-02-08T00:57:03.080Z,26.02
2023-02-08T00:59:49.304Z,29.75
2023-02-08T01:02:35.243Z,24.45
2023-02-08T01:05:20.995Z,26.42
2023-02-08T01:08:07.072Z,24.35
2023-02-08T01:10:53.352Z,23.90
2023-02-08T01:13:41.876Z,23.35
2023-02-08T01:16:31.754Z,28.20
2023-02-08T01:19:19.583Z,38.28
2023-02-08T01:22:05.765Z,25.67
2023-02-08T01:24:51.511Z,33.15
2023-02-08T01:27:37.438Z,31.67
2023-02-08T01:30:24.036Z,22.88
2023-02-08T01:33:10.144Z,31.42
2023-02-08T01:35:56.046Z,28.92
2023-02-08T01:38:42.661Z,24.73
2023-02-08T01:41:34.423Z,23.33
2023-02-08T01:44:57.879Z,25.38
2023-02-08T01:47:45.470Z,23.77
2023-02-08T01:50:43.007Z,24.52
2023-02-08T01:53:30.861Z,23.20
2023-02-08T01:56:23.253Z,27.80
2023-02-08T01:59:13.982Z,26.35
2023-02-08T02:02:00.836Z,22.38
2023-02-08T02:04:48.255Z,25.05
2023-02-08T02:07:33.978Z,25.42
2023-02-08T02:10:26.820Z,20.25
2023-02-08T02:13:20.439Z,20.13
2023-02-08T02:16:06.951Z,22.63
2023-02-08T02:18:53.836Z,23.75
2023-02-08T02:21:39.798Z,23.00
2023-02-08T02:24:34.295Z,22.25
2023-02-08T02:27:59.109Z,23.45
2023-02-08T02:31:19.633Z,27.40
2023-02-08T02:34:31.666Z,27.48
2023-02-08T02:37:49.655Z,22.98
2023-02-08T02:40:56.717Z,21.63
2023-02-08T02:43:47.721Z,23.58
2023-02-08T02:46:43.432Z,25.83
2023-02-08T02:49:37.204Z,24.90
2023-02-08T02:52:34.654Z,22.08
2023-02-08T02:55:22.976Z,26.88
2023-02-08T02:58:11.045Z,21.25
2023-02-08T03:00:58.606Z,26.13
2023-02-08T03:03:44.468Z,33.15
2023-02-08T03:06:57.465Z,25.88
2023-02-08T03:09:55.617Z,25.73
2023-02-08T03:13:19.356Z,27.10
2023-02-08T03:16:14.393Z,24.13
2023-02-08T03:19:08.126Z,23.73
2023-02-08T03:21:53.815Z,26.73
2023-02-08T03:25:00.673Z,22.83
2023-02-08T03:28:02.085Z,26.45
2023-02-08T03:30:52.752Z,22.90
2023-02-08T03:33:45.816Z,26.90
2023-02-08T03:36:49.550Z,24.17
2023-02-08T03:39:36.621Z,26.73
2023-02-08T03:42:25.559Z,23.15
2023-02-08T03:45:25.135Z,25.33
2023-02-08T03:48:12.367Z,28.15
2023-02-08T03:50:59.009Z,25.67
2023-02-08T03:53:46.542Z,27.00
2023-02-08T03:56:41.732Z,24.00
2023-02-08T03:59:30.950Z,25.08
2023-02-08T04:02:20.106Z,22.67
2023-02-08T04:05:06.750Z,24.92
2023-02-08T04:07:52.910Z,22.63
2023-02-08T04:10:39.116Z,22.30
2023-02-08T04:13:25.383Z,25.17
2023-02-08T04:16:12.408Z,25.17
2023-02-08T04:18:58.284Z,24.48
2023-02-08T04:21:44.077Z,22.15
2023-02-08T04:24:29.870Z,22.17
2023-02-08T04:27:15.737Z,22.95
2023-02-08T04:30:01.659Z,22.73
2023-02-08T04:32:47.495Z,22.70
2023-02-08T04:35:34.347Z,22.63
2023-02-08T04:38:20.089Z,23.98
2023-02-08T04:41:06.006Z,24.45
2023-02-08T04:43:51.807Z,21.95
2023-02-08T04:46:37.768Z,24.67
2023-02-08T04:49:23.575Z,22.13
2023-02-08T04:52:09.428Z,24.92
2023-02-08T04:54:55.118Z,24.63
2023-02-08T04:57:40.871Z,21.10
2023-02-08T05:00:27.150Z,25.65
2023-02-08T05:03:13.714Z,23.65
2023-02-08T05:06:00.226Z,23.40
2023-02-08T05:08:46.349Z,25.05
2023-02-08T05:11:32.319Z,22.38
2023-02-08T05:14:18.199Z,25.83
2023-02-08T05:17:04.091Z,25.02
2023-02-08T05:19:49.774Z,23.92
2023-02-08T05:22:35.964Z,23.35
2023-02-08T05:25:22.058Z,23.00
2023-02-08T05:28:07.830Z,25.42
2023-02-08T05:30:53.666Z,27.25
2023-02-08T05:33:39.493Z,31.92
2023-02-08T05:36:25.365Z,28.35
2023-02-08T05:39:11.145Z,21.95
2023-02-08T05:41:56.978Z,27.38
2023-02-08T05:44:42.745Z,24.30
2023-02-08T05:47:28.766Z,22.25
2023-02-08T05:50:14.911Z,20.40
2023-02-08T05:53:04.890Z,22.83
2023-02-08T05:55:56.902Z,24.00
2023-02-08T05:58:42.677Z,26.55
2023-02-08T06:01:29.288Z,24.30
2023-02-08T06:04:15.425Z,26.10
2023-02-08T06:07:01.235Z,25.27
2023-02-08T06:09:48.580Z,27.48
2023-02-08T06:12:34.861Z,26.88
2023-02-08T06:15:20.763Z,24.65
2023-02-08T06:18:06.512Z,27.55
2023-02-08T06:20:54.316Z,25.05
2023-02-08T06:23:41.308Z,26.30
2023-02-08T06:26:27.299Z,24.50
2023-02-08T06:29:16.586Z,39.42
2023-02-08T06:32:03.132Z,40.08
2023-02-08T06:34:50.948Z,31.13
2023-02-08T06:37:36.766Z,27.90
2023-02-08T06:40:22.706Z,22.85
2023-02-08T06:43:08.658Z,25.85
2023-02-08T06:45:54.849Z,24.55
2023-02-08T06:48:40.687Z,23.33
2023-02-08T06:51:27.467Z,24.55
2023-02-08T06:54:15.669Z,22.17
2023-02-08T06:57:02.022Z,30.85
2023-02-08T06:59:47.802Z,23.67
2023-02-08T07:02:33.977Z,38.28
2023-02-08T07:05:20.049Z,30.85
2023-02-08T07:08:06.626Z,30.67
2023-02-08T07:10:52.839Z,41.40
2023-02-08T07:13:38.790Z,31.25
2023-02-08T07:16:26.169Z,27.73
2023-02-08T07:19:11.958Z,24.90
2023-02-08T07:21:59.450Z,28.65
2023-02-08T07:24:45.480Z,29.90
2023-02-08T07:27:31.425Z,26.55
2023-02-08T07:30:17.242Z,28.00
2023-02-08T07:33:03.083Z,30.27
2023-02-08T07:35:49.061Z,33.05
2023-02-08T07:38:35.299Z,30.50
2023-02-08T07:41:21.261Z,25.13
2023-02-08T07:44:07.541Z,33.15
2023-02-08T07:46:53.422Z,28.75
2023-02-08T07:49:39.215Z,29.65
2023-02-08T07:52:24.919Z,29.58
2023-02-08T07:55:11.841Z,33.33
2023-02-08T07:57:58.728Z,33.55
2023-02-08T08:00:44.447Z,30.60
2023-02-08T08:03:30.373Z,28.63
2023-02-08T08:06:16.268Z,29.20
2023-02-08T08:09:02.077Z,26.70
2023-02-08T08:11:47.880Z,31.10
2023-02-08T08:14:33.556Z,30.13
2023-02-08T08:17:19.819Z,31.40
2023-02-08T08:20:06.003Z,29.60
2023-02-08T08:22:52.101Z,33.33
2023-02-08T08:25:38.201Z,28.02
2023-02-08T08:28:24.276Z,30.67
2023-02-08T08:31:19.223Z,32.10
2023-02-08T08:34:05.389Z,27.80
2023-02-08T08:36:51.195Z,32.28
2023-02-08T08:39:37.275Z,30.25
2023-02-08T08:42:22.951Z,29.02
2023-02-08T08:45:09.507Z,27.40
2023-02-08T08:47:55.665Z,30.88
2023-02-08T08:50:43.281Z,32.65
2023-02-08T08:53:29.617Z,24.67
2023-02-08T08:56:15.708Z,31.08
2023-02-08T08:59:01.477Z,27.50
2023-02-08T09:01:47.262Z,31.35
2023-02-08T09:04:33.688Z,39.15
2023-02-08T09:07:19.724Z,32.65
2023-02-08T09:10:06.149Z,28.48
2023-02-08T09:12:53.096Z,31.55
2023-02-08T09:15:40.679Z,30.30
2023-02-08T09:18:26.426Z,30.73
2023-02-08T09:21:21.136Z,26.67
2023-02-08T09:24:07.025Z,34.88
2023-02-08T09:26:52.713Z,31.15
2023-02-08T09:29:38.436Z,28.10
2023-02-08T09:32:24.146Z,31.17
2023-02-08T09:35:09.960Z,23.75
2023-02-08T09:37:58.204Z,26.25
2023-02-08T09:41:22.728Z,27.88
2023-02-08T09:44:26.663Z,34.53
2023-02-08T09:47:22.548Z,27.88
2023-02-08T09:50:39.729Z,26.05
2023-02-08T09:53:32.522Z,24.55
2023-02-08T09:56:22.103Z,28.63
2023-02-08T09:59:23.193Z,32.10
2023-02-08T10:02:21.664Z,29.10
2023-02-08T10:05:11.386Z,29.40
2023-02-08T10:07:58.640Z,28.95
2023-02-08T10:10:49.184Z,34.60
2023-02-08T10:13:44.506Z,36.13
2023-02-08T10:16:33.380Z,31.70
2023-02-08T10:19:55.518Z,36.42
2023-02-08T10:23:03.273Z,32.33
2023-02-08T10:26:29.501Z,34.95
2023-02-08T10:29:38.736Z,32.83
2023-02-08T10:33:00.592Z,32.55
2023-02-08T10:35:54.377Z,34.42
2023-02-08T10:38:46.697Z,50.35
2023-02-08T10:41:38.033Z,55.35
2023-02-08T10:44:56.636Z,41.35
2023-02-08T10:47:55.738Z,38.97
2023-02-08T10:50:46.315Z,47.17
2023-02-08T10:53:35.461Z,50.85
2023-02-08T10:56:39.164Z,41.17
2023-02-08T10:59:30.936Z,39.67
2023-02-08T11:02:28.834Z,42.53
2023-02-08T11:05:20.049Z,43.80
2023-02-08T11:08:10.726Z,44.80
2023-02-08T11:11:04.540Z,42.22
2023-02-08T11:13:51.722Z,43.03
2023-02-08T11:16:42.384Z,55.65
2023-02-08T11:19:37.657Z,52.95
2023-02-08T11:22:25.559Z,49.58
2023-02-08T11:25:32.881Z,50.53
2023-02-08T11:28:40.959Z,48.25
2023-02-08T11:31:36.552Z,51.10
2023-02-08T11:34:35.598Z,36.58
2023-02-08T11:37:28.084Z,43.75
2023-02-08T11:43:07.999Z,36.92
2023-02-08T11:45:56.069Z,33.42
2023-02-08T11:48:49.427Z,27.05
2023-02-08T11:51:36.807Z,26.80
2023-02-08T11:54:41.461Z,29.48
2023-02-08T11:57:31.811Z,32.20
2023-02-08T12:00:23.915Z,61.50
2023-02-08T12:03:18.595Z,54.42
2023-02-08T12:06:18.015Z,26.50
2023-02-08T12:09:27.311Z,28.05
2023-02-08T12:12:17.791Z,66.97
2023-02-08T12:15:09.856Z,41.35
2023-02-08T12:18:14.283Z,41.27
2023-02-08T12:21:17.674Z,37.50
2023-02-08T12:24:08.160Z,48.20
2023-02-08T12:27:27.513Z,48.15
2023-02-08T12:30:30.302Z,37.95
2023-02-08T12:33:34.470Z,36.55
2023-02-08T12:36:41.370Z,29.63
2023-02-08T12:40:01.185Z,26.00
2023-02-08T12:43:00.617Z,33.40
2023-02-08T12:46:01.572Z,32.35
2023-02-08T12:48:59.709Z,27.27
2023-02-08T12:52:18.086Z,32.47
2023-02-08T12:55:25.899Z,30.42
2023-02-08T12:58:37.305Z,36.42
2023-02-08T13:01:30.028Z,46.92
2023-02-08T13:04:43.599Z,20.70
2023-02-08T13:07:33.909Z,22.77
2023-02-08T13:10:30.648Z,21.42
2023-02-08T13:13:22.379Z,25.60
2023-02-08T13:16:20.362Z,21.77
2023-02-08T13:19:22.581Z,26.88
2023-02-08T13:22:10.189Z,19.75
2023-02-08T13:25:12.122Z,15.73
2023-02-08T13:28:04.764Z,17.80
2023-02-08T13:31:02.848Z,15.85
2023-02-08T13:34:32.830Z,22.58
2023-02-08T13:37:31.497Z,26.23
2023-02-08T13:40:28.253Z,17.25
2023-02-08T13:43:37.741Z,18.52
2023-02-08T13:46:27.895Z,20.60
2023-02-08T13:49:41.568Z,17.70
2023-02-08T13:52:48.966Z,16.45
2023-02-08T13:55:41.584Z,21.50
2023-02-08T13:58:36.409Z,33.08
2023-02-08T14:01:27.864Z,22.88
2023-02-08T14:04:13.738Z,20.20
2023-02-08T14:07:08.460Z,23.40
2023-02-08T14:10:22.543Z,20.45
2023-02-08T14:13:27.379Z,15.88
2023-02-08T14:16:34.517Z,18.25
2023-02-08T14:19:24.671Z,15.23
2023-02-08T14:22:14.027Z,16.90
2023-02-08T14:25:16.985Z,18.10
2023-02-08T14:28:03.427Z,17.48
2023-02-08T14:30:52.084Z,19.52
2023-02-08T14:33:41.819Z,22.58
2023-02-08T14:36:35.557Z,25.92
2023-02-08T14:39:25.049Z,18.83
2023-02-08T14:42:13.939Z,26.70
2023-02-08T14:45:01.417Z,21.80
2023-02-08T14:47:47.102Z,25.30
2023-02-08T14:50:36.074Z,26.42
2023-02-08T14:53:24.580Z,25.98
2023-02-08T14:56:18.309Z,22.25
2023-02-08T14:59:26.672Z,19.52
2023-02-08T15:02:16.285Z,16.52
2023-02-08T15:05:09.950Z,17.45
2023-02-08T15:07:57.831Z,19.48
2023-02-08T15:10:45.465Z,18.73
2023-02-08T15:13:31.552Z,20.95
2023-02-08T15:16:17.417Z,21.23
2023-02-08T15:19:04.456Z,17.60
2023-02-08T15:21:50.571Z,22.58
2023-02-08T15:24:37.948Z,27.55
2023-02-08T15:27:27.058Z,36.58
2023-02-08T15:30:37.450Z,25.05
2023-02-08T15:33:23.325Z,27.42
2023-02-08T15:36:17.126Z,25.55
2023-02-08T15:39:23.296Z,21.60
2023-02-08T15:42:21.031Z,23.92
2023-02-08T15:45:24.578Z,17.52
2023-02-08T15:48:11.337Z,16.52
2023-02-08T15:50:57.529Z,27.85
2023-02-08T15:53:46.046Z,52.35
2023-02-08T15:56:38.666Z,53.70
2023-02-08T15:59:29.004Z,56.92
2023-02-08T16:02:23.916Z,27.40
2023-02-08T16:05:20.915Z,34.20
2023-02-08T16:08:07.242Z,22.52
2023-02-08T16:11:11.987Z,20.55
2023-02-08T16:13:59.395Z,20.45
2023-02-08T16:16:49.541Z,21.58
2023-02-08T16:19:35.332Z,24.30
2023-02-08T16:22:21.272Z,27.42
2023-02-08T16:25:34.035Z,27.88
2023-02-08T16:28:28.837Z,26.73
2023-02-08T16:31:20.383Z,27.85
2023-02-08T16:34:08.064Z,29.17
2023-02-08T16:36:54.870Z,19.60
2023-02-08T16:39:50.244Z,16.30
2023-02-08T16:42:40.045Z,28.88
2023-02-08T16:45:25.862Z,18.48
2023-02-08T16:48:51.207Z,23.88
2023-02-08T16:51:39.514Z,26.73
2023-02-08T16:54:28.375Z,19.13
2023-02-08T16:57:14.697Z,18.23
2023-02-08T17:00:00.935Z,21.00
2023-02-08T17:02:47.555Z,29.33
2023-02-08T17:05:38.483Z,24.88
2023-02-08T17:08:24.325Z,22.30
2023-02-08T17:11:13.461Z,19.45
2023-02-08T17:14:01.181Z,20.35
2023-02-08T17:16:47.378Z,24.80
2023-02-08T17:19:33.171Z,24.70
2023-02-08T17:22:19.556Z,25.75
2023-02-08T17:25:06.032Z,27.15
2023-02-08T17:27:58.164Z,25.98
2023-02-08T17:30:44.927Z,23.25
2023-02-08T17:33:33.288Z,28.20
2023-02-08T17:36:19.592Z,34.70
2023-02-08T17:39:06.246Z,31.75
2023-02-08T17:41:52.301Z,21.90
2023-02-08T17:44:38.027Z,27.52
2023-02-08T17:47:24.430Z,29.65
2023-02-08T17:50:12.519Z,34.13
2023-02-08T17:52:58.269Z,24.83
2023-02-08T17:55:45.574Z,29.98
2023-02-08T17:58:32.044Z,27.90
2023-02-08T18:01:21.645Z,26.05
2023-02-08T18:04:11.221Z,32.22
2023-02-08T18:06:57.384Z,24.33
2023-02-08T18:09:43.253Z,21.17
2023-02-08T18:12:29.245Z,28.80
2023-02-08T18:15:18.037Z,31.95
2023-02-08T18:18:04.127Z,28.67
2023-02-08T18:20:50.342Z,27.50
2023-02-08T18:23:36.389Z,33.75
2023-02-08T18:26:24.085Z,29.15
2023-02-08T18:29:11.161Z,31.98
2023-02-08T18:31:57.503Z,34.63
2023-02-08T18:34:45.303Z,31.42
2023-02-08T18:37:32.376Z,23.95
2023-02-08T18:40:18.434Z,23.88
2023-02-08T18:43:04.395Z,24.48
2023-02-08T18:46:04.646Z,22.88
2023-02-08T18:48:51.519Z,28.77
2023-02-08T18:51:37.643Z,30.80
2023-02-08T18:54:23.541Z,46.35
2023-02-08T18:57:12.288Z,45.45
2023-02-08T18:59:58.566Z,40.88
2023-02-08T19:02:46.097Z,36.20
2023-02-08T19:05:32.450Z,41.50
2023-02-08T19:08:18.194Z,43.40
2023-02-08T19:11:05.180Z,28.35
2023-02-08T19:13:52.170Z,27.08
2023-02-08T19:16:39.033Z,50.08
2023-02-08T19:19:25.421Z,57.03
2023-02-08T19:22:11.190Z,46.20
2023-02-08T19:24:57.393Z,43.15
2023-02-08T19:27:45.004Z,45.70
2023-02-08T19:30:30.762Z,42.50
2023-02-08T19:33:16.671Z,39.10
2023-02-08T19:36:10.004Z,35.28
2023-02-08T19:38:58.404Z,44.47
2023-02-08T19:41:45.452Z,41.13
2023-02-08T19:44:31.721Z,33.72
2023-02-08T19:47:18.505Z,26.83
2023-02-08T19:50:05.563Z,30.60
2023-02-08T19:52:51.389Z,67.65
2023-02-08T19:55:37.311Z,73.57
2023-02-08T19:58:23.369Z,87.38
2023-02-08T20:01:12.785Z,99.13
2023-02-08T20:03:58.691Z,87.43
2023-02-08T20:06:45.218Z,70.50
2023-02-08T20:09:31.276Z,51.83
2023-02-08T20:12:17.143Z,45.55
2023-02-08T20:15:03.013Z,39.95
2023-02-08T20:17:48.923Z,39.55
2023-02-08T20:20:35.951Z,44.35
2023-02-08T20:23:23.020Z,49.03
2023-02-08T20:26:14.060Z,39.60
2023-02-08T20:29:00.063Z,42.67
2023-02-08T20:31:52.207Z,45.53
2023-02-08T20:34:40.962Z,74.10
2023-02-08T20:37:33.996Z,45.90
2023-02-08T20:40:19.819Z,46.58
2023-02-08T20:43:05.674Z,53.35
2023-02-08T20:45:51.562Z,48.47
2023-02-08T20:48:37.498Z,52.13
2023-02-08T20:51:25.872Z,48.78
2023-02-08T20:54:12.331Z,59.17
2023-02-08T20:56:58.563Z,57.03
2023-02-08T20:59:45.619Z,51.55
2023-02-08T21:02:31.649Z,66.45
2023-02-08T21:05:17.552Z,55.45
2023-02-08T21:08:03.563Z,49.30
2023-02-08T21:10:49.347Z,48.88
2023-02-08T21:13:35.542Z,59.72
2023-02-08T21:16:21.927Z,60.38
2023-02-08T21:19:07.667Z,49.72
2023-02-08T21:21:55.396Z,57.83
2023-02-08T21:24:41.598Z,63.92
2023-02-08T21:27:27.427Z,65.03
2023-02-08T21:30:13.452Z,58.28
2023-02-08T21:32:59.472Z,59.28
2023-02-08T21:35:45.221Z,55.05
2023-02-08T21:38:31.439Z,58.47
2023-02-08T21:41:20.463Z,52.97
2023-02-08T21:44:08.307Z,52.15
2023-02-08T21:46:54.570Z,51.38
2023-02-08T21:49:59.029Z,59.63
2023-02-08T21:53:03.648Z,55.65
2023-02-08T21:55:49.470Z,50.25
2023-02-08T21:58:35.597Z,58.92
2023-02-08T22:01:21.704Z,50.80
2023-02-08T22:04:07.588Z,56.75
2023-02-08T22:06:53.354Z,58.45
2023-02-08T22:09:41.648Z,56.78
2023-02-08T22:12:27.457Z,59.63
2023-02-08T22:15:16.201Z,65.25
2023-02-08T22:18:03.135Z,71.72
2023-02-08T22:20:52.225Z,60.92
2023-02-08T22:23:38.135Z,57.53
2023-02-08T22:26:24.017Z,53.38
2023-02-08T22:29:10.603Z,47.13
2023-02-08T22:31:56.798Z,56.22
2023-02-08T22:34:44.497Z,60.00
2023-02-08T22:37:32.888Z,59.97
2023-02-08T22:40:19.149Z,65.18
2023-02-08T22:43:05.082Z,55.75
2023-02-08T22:46:00.701Z,62.58
2023-02-08T22:48:46.905Z,65.78
2023-02-08T22:51:32.690Z,62.03
2023-02-08T22:54:18.530Z,64.47
2023-02-08T22:57:06.026Z,63.83
2023-02-08T22:59:52.155Z,63.55
2023-02-08T23:02:38.008Z,71.93
2023-02-08T23:05:23.764Z,62.70
2023-02-08T23:08:10.375Z,55.65
2023-02-08T23:11:05.068Z,58.63
2023-02-08T23:13:51.102Z,64.75
2023-02-08T23:16:37.157Z,54.72
2023-02-08T23:19:23.429Z,57.53
2023-02-08T23:22:09.562Z,49.38
2023-02-08T23:24:55.670Z,52.80
2023-02-08T23:27:41.748Z,54.70
2023-02-08T23:30:27.710Z,58.50
2023-02-08T23:33:13.574Z,53.45
2023-02-08T23:35:59.444Z,48.08
2023-02-08T23:38:45.356Z,55.38
2023-02-08T23:41:31.544Z,54.53
2023-02-08T23:44:17.781Z,50.47
2023-02-08T23:47:03.560Z,46.60
2023-02-08T23:49:49.511Z,52.13
2023-02-08T23:52:36.556Z,52.95
2023-02-08T23:55:23.587Z,51.05
2023-02-08T23:58:09.741Z,52.72
